sensor_id;sensor_type;location;lat;lon;timestamp;pressure;altitude;pressure_sealevel;temperature;humidity
75208;BME280;63795;55.684;37.864;2023-09-07T00:00:04;100219.69;;;11.39;59.97
75208;BME280;63795;55.684;37.864;2023-09-07T00:05:06;100218.88;;;11.28;59.27
75208;BME280;63795;55.684;37.864;2023-09-07T00:10:07;100230.63;;;11.30;61.54
75208;BME280;63795;55.684;37.864;2023-09-07T00:15:08;100237.50;;;11.22;60.88
75208;BME280;63795;55.684;37.864;2023-09-07T00:20:11;100234.66;;;11.22;61.27
75208;BME280;63795;55.684;37.864;2023-09-07T00:25:11;100233.03;;;11.17;61.96
75208;BME280;63795;55.684;37.864;2023-09-07T00:30:12;100245.56;;;11.09;62.87
75208;BME280;63795;55.684;37.864;2023-09-07T00:35:12;100244.75;;;11.01;63.28
75208;BME280;63795;55.684;37.864;2023-09-07T00:40:13;100243.09;;;11.00;63.04
75208;BME280;63795;55.684;37.864;2023-09-07T00:45:13;100248.78;;;10.97;62.31
75208;BME280;63795;55.684;37.864;2023-09-07T00:50:14;100261.31;;;10.92;63.60
75208;BME280;63795;55.684;37.864;2023-09-07T00:55:16;100261.72;;;10.87;64.35
75208;BME280;63795;55.684;37.864;2023-09-07T01:00:17;100262.50;;;10.84;64.38
75208;BME280;63795;55.684;37.864;2023-09-07T01:05:19;100275.91;;;10.87;64.16
75208;BME280;63795;55.684;37.864;2023-09-07T01:10:22;100273.84;;;10.81;64.17
75208;BME280;63795;55.684;37.864;2023-09-07T01:15:22;100279.50;;;10.81;64.42
75208;BME280;63795;55.684;37.864;2023-09-07T01:20:24;100283.56;;;10.80;64.97
75208;BME280;63795;55.684;37.864;2023-09-07T01:25:25;100293.66;;;10.74;64.54
75208;BME280;63795;55.684;37.864;2023-09-07T01:30:27;100278.25;;;10.71;65.65
75208;BME280;63795;55.684;37.864;2023-09-07T01:35:28;100294.44;;;10.67;66.17
75208;BME280;63795;55.684;37.864;2023-09-07T01:40:29;100291.19;;;10.65;65.77
75208;BME280;63795;55.684;37.864;2023-09-07T01:45:29;100298.84;;;10.61;66.53
75208;BME280;63795;55.684;37.864;2023-09-07T01:50:30;100287.47;;;10.54;67.66
75208;BME280;63795;55.684;37.864;2023-09-07T01:55:31;100313.38;;;10.53;68.49
75208;BME280;63795;55.684;37.864;2023-09-07T02:00:36;100316.13;;;10.39;68.53
75208;BME280;63795;55.684;37.864;2023-09-07T02:05:37;100317.69;;;10.33;68.97
75208;BME280;63795;55.684;37.864;2023-09-07T02:10:37;100318.06;;;10.24;69.41
75208;BME280;63795;55.684;37.864;2023-09-07T02:15:38;100308.66;;;10.16;70.54
75208;BME280;63795;55.684;37.864;2023-09-07T02:20:39;100332.56;;;10.19;70.04
75208;BME280;63795;55.684;37.864;2023-09-07T02:25:40;100330.00;;;10.07;70.10
75208;BME280;63795;55.684;37.864;2023-09-07T02:30:41;100336.06;;;10.02;71.28
75208;BME280;63795;55.684;37.864;2023-09-07T02:35:41;100337.13;;;9.90;72.09
75208;BME280;63795;55.684;37.864;2023-09-07T02:40:42;100335.09;;;9.84;71.85
75208;BME280;63795;55.684;37.864;2023-09-07T02:45:43;100339.91;;;9.80;72.14
75208;BME280;63795;55.684;37.864;2023-09-07T02:50:44;100351.97;;;9.77;72.05
75208;BME280;63795;55.684;37.864;2023-09-07T02:55:49;100352.72;;;9.70;72.56
75208;BME280;63795;55.684;37.864;2023-09-07T03:00:49;100368.50;;;9.68;73.06
75208;BME280;63795;55.684;37.864;2023-09-07T03:05:49;100352.22;;;9.61;71.84
75208;BME280;63795;55.684;37.864;2023-09-07T03:10:50;100361.16;;;9.63;72.70
75208;BME280;63795;55.684;37.864;2023-09-07T03:15:53;100376.56;;;9.66;71.49
75208;BME280;63795;55.684;37.864;2023-09-07T03:20:55;100371.66;;;9.63;73.03
75208;BME280;63795;55.684;37.864;2023-09-07T03:25:56;100382.56;;;9.61;72.93
75208;BME280;63795;55.684;37.864;2023-09-07T03:30:58;100389.03;;;9.61;72.82
75208;BME280;63795;55.684;37.864;2023-09-07T03:35:58;100375.63;;;9.58;73.63
75208;BME280;63795;55.684;37.864;2023-09-07T03:40:59;100386.94;;;9.55;73.46
75208;BME280;63795;55.684;37.864;2023-09-07T03:45:59;100390.97;;;9.54;72.12
75208;BME280;63795;55.684;37.864;2023-09-07T03:51:00;100392.25;;;9.60;73.29
75208;BME280;63795;55.684;37.864;2023-09-07T03:56:02;100399.13;;;9.62;72.97
75208;BME280;63795;55.684;37.864;2023-09-07T04:01:03;100408.13;;;9.68;73.24
75208;BME280;63795;55.684;37.864;2023-09-07T04:06:04;100406.13;;;9.72;72.91
75208;BME280;63795;55.684;37.864;2023-09-07T04:11:05;100408.59;;;9.77;72.68
75208;BME280;63795;55.684;37.864;2023-09-07T04:16:08;100418.75;;;9.78;72.61
75208;BME280;63795;55.684;37.864;2023-09-07T04:21:08;100413.56;;;9.87;72.16
75208;BME280;63795;55.684;37.864;2023-09-07T04:26:10;100423.81;;;9.98;72.24
75208;BME280;63795;55.684;37.864;2023-09-07T04:31:12;100432.81;;;10.07;71.40
75208;BME280;63795;55.684;37.864;2023-09-07T04:36:13;100438.91;;;10.09;71.21
75208;BME280;63795;55.684;37.864;2023-09-07T04:41:14;100440.19;;;10.12;70.93
75208;BME280;63795;55.684;37.864;2023-09-07T04:46:16;100444.31;;;10.21;71.15
75208;BME280;63795;55.684;37.864;2023-09-07T04:51:17;100456.66;;;10.43;69.69
75208;BME280;63795;55.684;37.864;2023-09-07T04:56:17;100458.38;;;10.55;69.50
75208;BME280;63795;55.684;37.864;2023-09-07T05:01:18;100468.09;;;10.54;69.37
75208;BME280;63795;55.684;37.864;2023-09-07T05:06:18;100455.22;;;10.67;68.91
75208;BME280;63795;55.684;37.864;2023-09-07T05:11:19;100468.69;;;10.80;68.43
75208;BME280;63795;55.684;37.864;2023-09-07T05:16:19;100474.13;;;10.99;68.27
75208;BME280;63795;55.684;37.864;2023-09-07T05:21:20;100481.50;;;11.14;67.81
75208;BME280;63795;55.684;37.864;2023-09-07T05:26:23;100472.66;;;11.27;67.38
75208;BME280;63795;55.684;37.864;2023-09-07T05:31:27;100476.41;;;11.41;66.69
75208;BME280;63795;55.684;37.864;2023-09-07T05:36:27;100471.97;;;11.44;65.94
75208;BME280;63795;55.684;37.864;2023-09-07T05:41:28;100468.78;;;11.56;66.23
75208;BME280;63795;55.684;37.864;2023-09-07T05:46:28;100473.75;;;11.76;65.54
75208;BME280;63795;55.684;37.864;2023-09-07T05:51:29;100470.16;;;11.93;64.46
75208;BME280;63795;55.684;37.864;2023-09-07T05:56:29;100469.00;;;12.12;64.16
75208;BME280;63795;55.684;37.864;2023-09-07T06:01:30;100469.47;;;12.63;63.24
75208;BME280;63795;55.684;37.864;2023-09-07T06:06:32;100478.31;;;13.53;60.20
75208;BME280;63795;55.684;37.864;2023-09-07T06:11:32;100473.19;;;14.10;58.35
75208;BME280;63795;55.684;37.864;2023-09-07T06:16:34;100488.28;;;14.73;56.59
75208;BME280;63795;55.684;37.864;2023-09-07T06:21:35;100489.56;;;15.12;56.63
75208;BME280;63795;55.684;37.864;2023-09-07T06:26:35;100500.06;;;15.63;54.86
75208;BME280;63795;55.684;37.864;2023-09-07T06:31:36;100499.13;;;15.73;52.56
75208;BME280;63795;55.684;37.864;2023-09-07T06:36:36;100508.66;;;15.97;52.70
75208;BME280;63795;55.684;37.864;2023-09-07T06:41:37;100489.34;;;16.04;51.08
75208;BME280;63795;55.684;37.864;2023-09-07T06:46:37;100507.75;;;16.34;50.68
75208;BME280;63795;55.684;37.864;2023-09-07T06:51:38;100512.44;;;16.51;48.45
75208;BME280;63795;55.684;37.864;2023-09-07T06:56:38;100511.91;;;16.59;48.53
75208;BME280;63795;55.684;37.864;2023-09-07T07:01:39;100512.31;;;16.58;47.95
75208;BME280;63795;55.684;37.864;2023-09-07T07:06:39;100509.03;;;16.86;47.44
75208;BME280;63795;55.684;37.864;2023-09-07T07:11:40;100515.94;;;17.12;47.73
75208;BME280;63795;55.684;37.864;2023-09-07T07:16:41;100525.06;;;17.07;47.71
75208;BME280;63795;55.684;37.864;2023-09-07T07:21:41;100534.91;;;17.29;46.60
75208;BME280;63795;55.684;37.864;2023-09-07T07:26:42;100525.78;;;16.00;46.52
75208;BME280;63795;55.684;37.864;2023-09-07T07:31:42;100531.03;;;15.31;48.56
75208;BME280;63795;55.684;37.864;2023-09-07T07:36:42;100526.97;;;14.81;49.61
75208;BME280;63795;55.684;37.864;2023-09-07T07:41:43;100528.75;;;14.54;50.37
75208;BME280;63795;55.684;37.864;2023-09-07T07:46:45;100537.72;;;14.56;50.75
75208;BME280;63795;55.684;37.864;2023-09-07T07:51:46;100530.06;;;14.42;51.13
75208;BME280;63795;55.684;37.864;2023-09-07T07:56:46;100525.59;;;14.37;50.93
75208;BME280;63795;55.684;37.864;2023-09-07T08:01:47;100522.34;;;14.42;50.96
75208;BME280;63795;55.684;37.864;2023-09-07T08:06:47;100527.19;;;14.45;50.77
75208;BME280;63795;55.684;37.864;2023-09-07T08:11:48;100509.19;;;14.56;50.03
75208;BME280;63795;55.684;37.864;2023-09-07T08:16:48;100511.63;;;14.61;50.25
75208;BME280;63795;55.684;37.864;2023-09-07T08:21:49;100515.69;;;14.60;49.38
75208;BME280;63795;55.684;37.864;2023-09-07T08:26:49;100511.63;;;14.61;48.64
75208;BME280;63795;55.684;37.864;2023-09-07T08:31:55;100509.06;;;14.77;48.69
75208;BME280;63795;55.684;37.864;2023-09-07T08:36:56;100514.53;;;15.05;48.04
75208;BME280;63795;55.684;37.864;2023-09-07T08:41:59;100506.63;;;15.19;47.80
75208;BME280;63795;55.684;37.864;2023-09-07T08:47:02;100509.28;;;15.41;46.00
75208;BME280;63795;55.684;37.864;2023-09-07T08:52:04;100503.47;;;16.18;43.15
75208;BME280;63795;55.684;37.864;2023-09-07T08:57:05;100503.44;;;17.02;43.43
75208;BME280;63795;55.684;37.864;2023-09-07T09:02:09;100512.91;;;17.88;41.91
75208;BME280;63795;55.684;37.864;2023-09-07T09:07:11;100508.75;;;18.67;39.95
75208;BME280;63795;55.684;37.864;2023-09-07T09:12:12;100502.84;;;19.39;37.58
75208;BME280;63795;55.684;37.864;2023-09-07T09:17:14;100505.09;;;19.47;40.34
75208;BME280;63795;55.684;37.864;2023-09-07T09:22:15;100519.81;;;19.17;36.98
75208;BME280;63795;55.684;37.864;2023-09-07T09:27:15;100516.59;;;17.89;38.27
75208;BME280;63795;55.684;37.864;2023-09-07T09:32:16;100511.66;;;17.69;37.75
75208;BME280;63795;55.684;37.864;2023-09-07T09:37:17;100511.34;;;18.23;36.83
75208;BME280;63795;55.684;37.864;2023-09-07T09:42:20;100506.63;;;18.52;38.07
75208;BME280;63795;55.684;37.864;2023-09-07T09:47:21;100511.66;;;19.00;36.13
75208;BME280;63795;55.684;37.864;2023-09-07T09:52:22;100505.53;;;18.26;37.13
75208;BME280;63795;55.684;37.864;2023-09-07T09:57:23;100508.75;;;18.67;36.48
75208;BME280;63795;55.684;37.864;2023-09-07T10:02:25;100506.41;;;19.27;35.46
75208;BME280;63795;55.684;37.864;2023-09-07T10:07:41;100495.13;;;19.20;34.50
75208;BME280;63795;55.684;37.864;2023-09-07T10:12:43;100499.69;;;19.17;34.54
75208;BME280;63795;55.684;37.864;2023-09-07T10:17:44;100501.34;;;18.31;36.08
75208;BME280;63795;55.684;37.864;2023-09-07T10:22:46;100504.00;;;17.63;37.09
75208;BME280;63795;55.684;37.864;2023-09-07T10:27:47;100495.81;;;18.59;36.28
75208;BME280;63795;55.684;37.864;2023-09-07T10:32:47;100508.34;;;19.33;34.84
75208;BME280;63795;55.684;37.864;2023-09-07T10:37:48;100487.47;;;18.81;35.68
75208;BME280;63795;55.684;37.864;2023-09-07T10:42:48;100512.69;;;17.99;37.50
75208;BME280;63795;55.684;37.864;2023-09-07T10:47:49;100505.66;;;17.83;36.99
75208;BME280;63795;55.684;37.864;2023-09-07T10:52:49;100497.16;;;18.71;36.08
75208;BME280;63795;55.684;37.864;2023-09-07T10:57:50;100496.38;;;19.35;34.63
75208;BME280;63795;55.684;37.864;2023-09-07T11:02:50;100494.44;;;18.64;36.00
75208;BME280;63795;55.684;37.864;2023-09-07T11:07:51;100490.31;;;18.10;37.07
75208;BME280;63795;55.684;37.864;2023-09-07T11:12:51;100498.84;;;18.33;36.83
75208;BME280;63795;55.684;37.864;2023-09-07T11:17:52;100492.13;;;18.75;35.81
75208;BME280;63795;55.684;37.864;2023-09-07T11:22:53;100489.31;;;18.55;36.08
75208;BME280;63795;55.684;37.864;2023-09-07T11:27:54;100497.25;;;17.93;37.25
75208;BME280;63795;55.684;37.864;2023-09-07T11:33:06;100504.38;;;17.65;37.91
75208;BME280;63795;55.684;37.864;2023-09-07T11:38:07;100501.69;;;18.52;36.87
75208;BME280;63795;55.684;37.864;2023-09-07T11:43:14;100492.59;;;19.22;34.73
75208;BME280;63795;55.684;37.864;2023-09-07T11:48:15;100493.78;;;19.69;34.88
75208;BME280;63795;55.684;37.864;2023-09-07T11:53:15;100491.88;;;19.79;34.28
75208;BME280;63795;55.684;37.864;2023-09-07T11:58:15;100483.41;;;19.27;35.40
75208;BME280;63795;55.684;37.864;2023-09-07T12:03:16;100483.50;;;18.59;36.13
75208;BME280;63795;55.684;37.864;2023-09-07T12:08:16;100473.59;;;18.60;35.36
75208;BME280;63795;55.684;37.864;2023-09-07T12:13:17;100468.41;;;18.55;34.74
75208;BME280;63795;55.684;37.864;2023-09-07T12:18:17;100472.63;;;18.31;34.49
75208;BME280;63795;55.684;37.864;2023-09-07T12:23:18;100474.19;;;19.03;33.92
75208;BME280;63795;55.684;37.864;2023-09-07T12:28:18;100473.50;;;19.89;33.60
75208;BME280;63795;55.684;37.864;2023-09-07T12:33:19;100480.81;;;20.60;32.04
75208;BME280;63795;55.684;37.864;2023-09-07T12:38:19;100470.97;;;20.95;31.26
75208;BME280;63795;55.684;37.864;2023-09-07T12:43:23;100465.81;;;21.02;31.62
75208;BME280;63795;55.684;37.864;2023-09-07T12:48:25;100458.97;;;21.22;30.29
75208;BME280;63795;55.684;37.864;2023-09-07T12:53:26;100463.97;;;20.83;31.92
75208;BME280;63795;55.684;37.864;2023-09-07T12:58:26;100458.53;;;20.85;29.85
75208;BME280;63795;55.684;37.864;2023-09-07T13:03:27;100454.16;;;20.68;29.90
75208;BME280;63795;55.684;37.864;2023-09-07T13:08:27;100463.41;;;20.76;29.50
75208;BME280;63795;55.684;37.864;2023-09-07T13:13:30;100458.72;;;20.15;30.77
75208;BME280;63795;55.684;37.864;2023-09-07T13:18:31;100456.66;;;19.30;31.90
75208;BME280;63795;55.684;37.864;2023-09-07T13:23:31;100441.16;;;18.95;31.62
75208;BME280;63795;55.684;37.864;2023-09-07T13:28:31;100443.09;;;18.82;32.29
75208;BME280;63795;55.684;37.864;2023-09-07T13:33:32;100445.81;;;18.57;33.23
75208;BME280;63795;55.684;37.864;2023-09-07T13:38:33;100444.47;;;18.42;34.31
75208;BME280;63795;55.684;37.864;2023-09-07T13:43:33;100448.63;;;18.41;34.22
75208;BME280;63795;55.684;37.864;2023-09-07T13:48:34;100433.22;;;18.51;34.14
75208;BME280;63795;55.684;37.864;2023-09-07T13:53:34;100432.44;;;18.31;34.50
75208;BME280;63795;55.684;37.864;2023-09-07T13:58:34;100426.63;;;17.99;34.70
75208;BME280;63795;55.684;37.864;2023-09-07T14:03:35;100431.38;;;17.69;35.02
75208;BME280;63795;55.684;37.864;2023-09-07T14:08:37;100438.78;;;17.67;35.23
75208;BME280;63795;55.684;37.864;2023-09-07T14:13:37;100436.00;;;17.83;35.03
75208;BME280;63795;55.684;37.864;2023-09-07T14:18:38;100430.91;;;17.91;35.03
75208;BME280;63795;55.684;37.864;2023-09-07T14:23:38;100423.69;;;17.82;35.63
75208;BME280;63795;55.684;37.864;2023-09-07T14:28:39;100419.44;;;17.51;35.92
75208;BME280;63795;55.684;37.864;2023-09-07T14:33:39;100415.28;;;17.33;36.19
75208;BME280;63795;55.684;37.864;2023-09-07T14:38:42;100417.78;;;17.31;36.29
75208;BME280;63795;55.684;37.864;2023-09-07T14:43:48;100417.25;;;17.36;36.53
75208;BME280;63795;55.684;37.864;2023-09-07T14:48:48;100419.34;;;17.35;36.71
75208;BME280;63795;55.684;37.864;2023-09-07T14:53:49;100409.38;;;17.20;36.95
75208;BME280;63795;55.684;37.864;2023-09-07T14:58:49;100417.19;;;16.96;36.36
75208;BME280;63795;55.684;37.864;2023-09-07T15:03:50;100400.50;;;16.91;36.53
75208;BME280;63795;55.684;37.864;2023-09-07T15:08:50;100411.16;;;16.91;36.98
75208;BME280;63795;55.684;37.864;2023-09-07T15:13:51;100400.81;;;16.97;37.25
75208;BME280;63795;55.684;37.864;2023-09-07T15:18:53;100409.97;;;16.88;37.10
75208;BME280;63795;55.684;37.864;2023-09-07T15:23:53;100408.25;;;16.71;37.34
75208;BME280;63795;55.684;37.864;2023-09-07T15:28:54;100420.31;;;16.59;37.67
75208;BME280;63795;55.684;37.864;2023-09-07T15:33:54;100413.50;;;16.50;37.53
75208;BME280;63795;55.684;37.864;2023-09-07T15:38:55;100420.16;;;16.40;37.36
75208;BME280;63795;55.684;37.864;2023-09-07T15:43:55;100427.25;;;16.32;37.85
75208;BME280;63795;55.684;37.864;2023-09-07T15:48:56;100423.25;;;16.26;37.19
75208;BME280;63795;55.684;37.864;2023-09-07T15:53:57;100430.00;;;16.12;37.74
75208;BME280;63795;55.684;37.864;2023-09-07T15:58:57;100422.81;;;16.00;37.96
75208;BME280;63795;55.684;37.864;2023-09-07T16:03:58;100420.91;;;15.90;38.39
75208;BME280;63795;55.684;37.864;2023-09-07T16:08:59;100423.44;;;15.85;39.05
75208;BME280;63795;55.684;37.864;2023-09-07T16:14:00;100424.03;;;15.69;39.46
75208;BME280;63795;55.684;37.864;2023-09-07T16:19:00;100422.50;;;15.61;39.42
75208;BME280;63795;55.684;37.864;2023-09-07T16:24:01;100425.81;;;15.60;39.92
75208;BME280;63795;55.684;37.864;2023-09-07T16:29:03;100421.84;;;15.50;39.72
75208;BME280;63795;55.684;37.864;2023-09-07T16:34:04;100415.41;;;15.43;39.90
75208;BME280;63795;55.684;37.864;2023-09-07T16:39:04;100428.56;;;15.33;40.00
75208;BME280;63795;55.684;37.864;2023-09-07T16:44:04;100441.28;;;15.25;40.23
75208;BME280;63795;55.684;37.864;2023-09-07T16:49:05;100431.13;;;15.20;40.67
75208;BME280;63795;55.684;37.864;2023-09-07T16:54:05;100426.25;;;15.17;40.63
75208;BME280;63795;55.684;37.864;2023-09-07T16:59:06;100430.78;;;15.15;41.12
75208;BME280;63795;55.684;37.864;2023-09-07T17:04:06;100425.13;;;15.08;41.43
75208;BME280;63795;55.684;37.864;2023-09-07T17:09:07;100426.41;;;15.03;41.34
75208;BME280;63795;55.684;37.864;2023-09-07T17:14:08;100422.38;;;15.01;41.86
75208;BME280;63795;55.684;37.864;2023-09-07T17:19:09;100421.16;;;14.98;42.03
75208;BME280;63795;55.684;37.864;2023-09-07T17:24:11;100412.69;;;14.88;42.12
75208;BME280;63795;55.684;37.864;2023-09-07T17:29:11;100422.13;;;14.85;42.03
75208;BME280;63795;55.684;37.864;2023-09-07T17:34:12;100411.13;;;14.80;42.28
75208;BME280;63795;55.684;37.864;2023-09-07T17:39:13;100409.16;;;14.77;42.80
75208;BME280;63795;55.684;37.864;2023-09-07T17:44:13;100408.38;;;14.73;42.97
75208;BME280;63795;55.684;37.864;2023-09-07T17:49:14;100409.19;;;14.70;43.23
75208;BME280;63795;55.684;37.864;2023-09-07T17:54:14;100408.03;;;14.64;43.61
75208;BME280;63795;55.684;37.864;2023-09-07T17:59:15;100401.16;;;14.58;44.20
75208;BME280;63795;55.684;37.864;2023-09-07T18:04:15;100412.16;;;14.56;44.05
75208;BME280;63795;55.684;37.864;2023-09-07T18:09:16;100406.50;;;14.52;44.76
75208;BME280;63795;55.684;37.864;2023-09-07T18:14:16;100400.84;;;14.48;44.21
75208;BME280;63795;55.684;37.864;2023-09-07T18:19:16;100395.13;;;14.48;45.60
75208;BME280;63795;55.684;37.864;2023-09-07T18:24:17;100394.28;;;14.52;45.72
75208;BME280;63795;55.684;37.864;2023-09-07T18:29:17;100384.94;;;14.47;45.94
75208;BME280;63795;55.684;37.864;2023-09-07T18:34:18;100386.97;;;14.47;46.24
75208;BME280;63795;55.684;37.864;2023-09-07T18:39:18;100384.50;;;14.49;46.27
75208;BME280;63795;55.684;37.864;2023-09-07T18:44:19;100376.38;;;14.47;45.74
75208;BME280;63795;55.684;37.864;2023-09-07T18:49:20;100378.00;;;14.48;46.07
75208;BME280;63795;55.684;37.864;2023-09-07T19:03:35;100365.91;;;14.34;47.22
75208;BME280;63795;55.684;37.864;2023-09-07T19:08:36;100368.28;;;14.39;47.07
75208;BME280;63795;55.684;37.864;2023-09-07T19:13:36;100357.69;;;14.39;47.23
75208;BME280;63795;55.684;37.864;2023-09-07T19:18:37;100350.78;;;14.40;46.86
75208;BME280;63795;55.684;37.864;2023-09-07T19:23:37;100348.22;;;14.49;47.70
75208;BME280;63795;55.684;37.864;2023-09-07T19:28:38;100347.50;;;14.42;47.23
75208;BME280;63795;55.684;37.864;2023-09-07T19:33:38;100352.72;;;14.47;47.16
75208;BME280;63795;55.684;37.864;2023-09-07T19:38:38;100344.69;;;14.38;47.70
75208;BME280;63795;55.684;37.864;2023-09-07T19:43:41;100326.78;;;14.31;47.40
75208;BME280;63795;55.684;37.864;2023-09-07T19:48:42;100339.38;;;14.37;47.30
75208;BME280;63795;55.684;37.864;2023-09-07T19:53:43;100338.16;;;14.38;48.00
75208;BME280;63795;55.684;37.864;2023-09-07T19:58:44;100333.72;;;14.33;48.27
75208;BME280;63795;55.684;37.864;2023-09-07T20:03:47;100325.63;;;14.28;48.22
75208;BME280;63795;55.684;37.864;2023-09-07T20:08:48;100339.06;;;14.24;48.26
75208;BME280;63795;55.684;37.864;2023-09-07T20:13:48;100337.94;;;14.11;50.47
75208;BME280;63795;55.684;37.864;2023-09-07T20:18:49;100337.59;;;14.02;50.81
75208;BME280;63795;55.684;37.864;2023-09-07T20:23:49;100318.19;;;13.83;51.49
75208;BME280;63795;55.684;37.864;2023-09-07T20:28:50;100302.94;;;13.49;52.68
75208;BME280;63795;55.684;37.864;2023-09-07T20:33:53;100293.69;;;13.31;54.23
75208;BME280;63795;55.684;37.864;2023-09-07T20:38:53;100296.22;;;13.18;54.94
75208;BME280;63795;55.684;37.864;2023-09-07T20:43:55;100287.66;;;13.15;56.85
75208;BME280;63795;55.684;37.864;2023-09-07T20:48:55;100282.81;;;13.12;56.70
75208;BME280;63795;55.684;37.864;2023-09-07T20:53:55;100287.69;;;13.11;57.18
75208;BME280;63795;55.684;37.864;2023-09-07T20:58:56;100277.94;;;13.09;57.54
75208;BME280;63795;55.684;37.864;2023-09-07T21:03:56;100284.41;;;13.13;57.60
75208;BME280;63795;55.684;37.864;2023-09-07T21:08:57;100268.19;;;13.10;57.43
75208;BME280;63795;55.684;37.864;2023-09-07T21:13:57;100272.63;;;13.18;57.27
75208;BME280;63795;55.684;37.864;2023-09-07T21:18:58;100267.72;;;13.22;57.47
75208;BME280;63795;55.684;37.864;2023-09-07T21:23:59;100262.84;;;13.19;56.84
75208;BME280;63795;55.684;37.864;2023-09-07T21:28:59;100260.81;;;13.19;56.71
75208;BME280;63795;55.684;37.864;2023-09-07T21:34:00;100259.59;;;13.20;58.31
75208;BME280;63795;55.684;37.864;2023-09-07T21:39:00;100255.94;;;13.20;57.86
75208;BME280;63795;55.684;37.864;2023-09-07T21:44:01;100251.50;;;13.12;58.86
75208;BME280;63795;55.684;37.864;2023-09-07T21:49:01;100246.22;;;13.03;58.42
75208;BME280;63795;55.684;37.864;2023-09-07T21:54:02;100250.31;;;13.02;59.99
75208;BME280;63795;55.684;37.864;2023-09-07T21:59:03;100247.44;;;12.99;58.89
75208;BME280;63795;55.684;37.864;2023-09-07T22:04:03;100242.19;;;12.97;59.95
75208;BME280;63795;55.684;37.864;2023-09-07T22:09:04;100230.81;;;12.94;60.24
75208;BME280;63795;55.684;37.864;2023-09-07T22:14:05;100230.81;;;12.94;60.16
75208;BME280;63795;55.684;37.864;2023-09-07T22:19:05;100230.81;;;12.94;59.54
75208;BME280;63795;55.684;37.864;2023-09-07T22:24:06;100225.94;;;12.94;60.54
75208;BME280;63795;55.684;37.864;2023-09-07T22:29:06;100224.31;;;12.93;61.04
75208;BME280;63795;55.684;37.864;2023-09-07T22:34:07;100226.34;;;12.93;59.97
75208;BME280;63795;55.684;37.864;2023-09-07T22:39:09;100223.50;;;12.93;59.89
75208;BME280;63795;55.684;37.864;2023-09-07T22:44:11;100224.72;;;12.92;61.13
75208;BME280;63795;55.684;37.864;2023-09-07T22:49:11;100211.75;;;12.83;61.87
75208;BME280;63795;55.684;37.864;2023-09-07T22:54:12;100204.09;;;12.73;62.26
75208;BME280;63795;55.684;37.864;2023-09-07T22:59:13;100199.63;;;12.72;62.50
75208;BME280;63795;55.684;37.864;2023-09-07T23:04:13;100196.78;;;12.72;62.91
75208;BME280;63795;55.684;37.864;2023-09-07T23:09:14;100194.34;;;12.71;61.17
75208;BME280;63795;55.684;37.864;2023-09-07T23:14:16;100181.31;;;12.73;61.01
75208;BME280;63795;55.684;37.864;2023-09-07T23:19:17;100176.44;;;12.74;61.13
75208;BME280;63795;55.684;37.864;2023-09-07T23:24:18;100179.69;;;12.76;62.49
75208;BME280;63795;55.684;37.864;2023-09-07T23:29:18;100172.41;;;12.68;62.13
75208;BME280;63795;55.684;37.864;2023-09-07T23:34:19;100173.25;;;12.68;62.16
75208;BME280;63795;55.684;37.864;2023-09-07T23:39:19;100175.66;;;12.70;61.52
75208;BME280;63795;55.684;37.864;2023-09-07T23:44:20;100174.88;;;12.62;62.23
75208;BME280;63795;55.684;37.864;2023-09-07T23:49:20;100170.00;;;12.59;62.29
75208;BME280;63795;55.684;37.864;2023-09-07T23:54:21;100170.00;;;12.59;61.77
75208;BME280;63795;55.684;37.864;2023-09-07T23:59:21;100170.81;;;12.60;62.09
